< < Back
Terminal Aerodrome Forecast


Current Version              Previous Versions:   1  2  3  4  5  6  7  8  9  

Terminal Aerodrome Forecast

425
FTUS44 KBMX 030520
TAFMGM
TAF
KMGM 030520Z 0306/0406 22007KT P6SM SCT025 BKN250
     FM031800 25010KT P6SM OVC250
     FM040000 24004KT P6SM OVC250=

Latest METAR

803
SAUS80 KWBC 031600 RRB
MTRMGM
METAR KMGM 031553Z 25012G20KT 210V280 10SM CLR 31/22 A3006 RMK AO2
SLP174 T03060222


USA.gov is the U.S. government's official web portal to all federal, state and local government web resources and services.